createdAt,value
2024-04-01T00:04:02.738Z,6.00
2024-04-01T00:08:10.622Z,6.20
2024-04-01T00:12:18.736Z,6.10
2024-04-01T00:16:26.189Z,6.50
2024-04-01T00:20:33.519Z,5.00
2024-04-01T00:24:41.366Z,5.70
2024-04-01T00:28:48.680Z,5.30
2024-04-01T00:32:56.008Z,5.50
2024-04-01T00:37:03.842Z,5.80
2024-04-01T00:41:11.628Z,5.00
2024-04-01T00:45:19.142Z,5.30
2024-04-01T00:49:26.159Z,5.60
2024-04-01T00:53:35.428Z,4.20
2024-04-01T00:57:43.174Z,5.20
2024-04-01T01:01:51.207Z,5.70
2024-04-01T01:05:58.674Z,6.30
2024-04-01T01:10:07.200Z,5.90
2024-04-01T01:14:16.001Z,5.50
2024-04-01T01:18:23.884Z,4.80
2024-04-01T01:22:38.022Z,4.40
2024-04-01T01:26:46.742Z,4.50
2024-04-01T01:30:54.194Z,4.80
2024-04-01T01:35:04.905Z,4.30
2024-04-01T01:39:13.993Z,4.00
2024-04-01T01:43:21.669Z,4.20
2024-04-01T01:47:29.153Z,4.30
2024-04-01T01:51:36.900Z,4.70
2024-04-01T01:55:44.622Z,4.40
2024-04-01T01:59:52.261Z,4.80
2024-04-01T02:04:00.703Z,4.20
2024-04-01T02:08:08.723Z,5.20
2024-04-01T02:12:16.629Z,4.70
2024-04-01T02:16:23.959Z,4.30
2024-04-01T02:20:32.083Z,4.40
2024-04-01T02:24:39.277Z,4.20
2024-04-01T02:28:46.689Z,3.80
2024-04-01T02:32:54.272Z,3.00
2024-04-01T02:37:01.994Z,2.70
2024-04-01T02:41:09.282Z,2.80
2024-04-01T02:45:17.723Z,2.20
2024-04-01T02:49:25.558Z,2.60
2024-04-01T02:53:33.557Z,2.50
2024-04-01T02:57:41.176Z,3.70
2024-04-01T03:01:48.568Z,2.70
2024-04-01T03:05:55.971Z,3.10
2024-04-01T03:10:03.723Z,2.40
2024-04-01T03:14:11.747Z,3.00
2024-04-01T03:18:19.162Z,3.20
2024-04-01T03:22:27.341Z,2.20
2024-04-01T03:26:34.680Z,2.40
2024-04-01T03:30:42.660Z,2.50
2024-04-01T03:34:53.276Z,2.70
2024-04-01T03:39:00.404Z,2.50
2024-04-01T03:43:08.307Z,2.70
2024-04-01T03:47:15.900Z,2.50
2024-04-01T03:51:24.911Z,2.70
2024-04-01T03:55:32.334Z,2.70
2024-04-01T03:59:40.648Z,2.70
2024-04-01T04:03:48.329Z,2.40
2024-04-01T04:07:56.413Z,2.80
2024-04-01T04:12:05.108Z,2.70
2024-04-01T04:16:14.035Z,2.30
2024-04-01T04:20:22.014Z,2.50
2024-04-01T04:24:29.379Z,3.20
2024-04-01T04:28:36.930Z,2.30
2024-04-01T04:32:45.716Z,2.70
2024-04-01T04:36:53.296Z,2.10
2024-04-01T04:45:33.117Z,2.10
2024-04-01T04:49:42.875Z,2.30
2024-04-01T04:53:50.143Z,2.00
2024-04-01T04:57:57.375Z,2.20
2024-04-01T05:02:07.833Z,2.90
2024-04-01T05:06:15.465Z,2.20
2024-04-01T05:10:23.657Z,3.20
2024-04-01T05:14:31.459Z,2.70
2024-04-01T05:18:40.074Z,2.70
2024-04-01T05:22:47.531Z,2.60
2024-04-01T05:26:54.904Z,2.30
2024-04-01T05:31:02.783Z,2.30
2024-04-01T05:35:12.091Z,2.50
2024-04-01T05:39:21.372Z,2.20
2024-04-01T05:43:29.666Z,3.30
2024-04-01T05:47:37.671Z,2.20
2024-04-01T05:51:44.943Z,2.00
2024-04-01T05:55:52.682Z,2.30
2024-04-01T06:00:00.396Z,2.50
2024-04-01T06:04:08.717Z,2.40
2024-04-01T06:08:17.320Z,2.50
2024-04-01T06:12:24.995Z,2.10
2024-04-01T06:16:33.079Z,2.80
2024-04-01T06:20:41.249Z,2.20
2024-04-01T06:24:51.778Z,1.80
2024-04-01T06:28:58.897Z,4.10
2024-04-01T06:33:08.467Z,2.00
2024-04-01T06:37:16.516Z,2.30
2024-04-01T06:41:24.191Z,2.30
2024-04-01T06:45:32.097Z,2.80
2024-04-01T06:49:39.583Z,2.40
2024-04-01T06:53:47.299Z,2.40
2024-04-01T06:57:54.848Z,2.90
2024-04-01T07:02:02.385Z,2.40
2024-04-01T07:06:13.092Z,2.20
2024-04-01T07:10:21.065Z,2.10
2024-04-01T07:14:31.187Z,2.70
2024-04-01T07:18:39.940Z,2.60
2024-04-01T07:22:48.208Z,2.70
2024-04-01T07:26:57.273Z,2.90
2024-04-01T07:31:08.630Z,2.90
2024-04-01T07:35:16.319Z,2.30
2024-04-01T07:39:24.140Z,3.10
2024-04-01T07:43:32.081Z,2.80
2024-04-01T07:47:39.293Z,2.70
2024-04-01T07:51:46.605Z,2.90
2024-04-01T07:55:56.176Z,2.20
2024-04-01T08:00:04.518Z,2.60
2024-04-01T08:04:12.026Z,3.20
2024-04-01T08:08:19.527Z,3.00
2024-04-01T08:12:27.234Z,3.20
2024-04-01T08:16:34.842Z,3.00
2024-04-01T08:20:42.991Z,2.80
2024-04-01T08:24:51.895Z,2.90
2024-04-01T08:29:01.180Z,2.60
2024-04-01T08:33:11.519Z,3.20
2024-04-01T08:37:19.099Z,2.90
2024-04-01T08:41:33.583Z,3.20
2024-04-01T08:45:44.143Z,3.10
2024-04-01T08:49:56.772Z,2.70
2024-04-01T08:54:06.043Z,3.00
2024-04-01T08:58:13.491Z,3.10
2024-04-01T09:02:22.624Z,3.80
2024-04-01T09:06:31.684Z,3.40
2024-04-01T09:10:38.806Z,3.70
2024-04-01T09:14:45.903Z,3.70
2024-04-01T09:18:54.480Z,3.70
2024-04-01T09:23:02.846Z,4.30
2024-04-01T09:27:10.135Z,3.60
2024-04-01T09:31:20.234Z,3.90
2024-04-01T09:35:29.443Z,3.50
2024-04-01T09:39:37.990Z,4.00
2024-04-01T09:43:51.628Z,3.60
2024-04-01T09:48:00.506Z,5.00
2024-04-01T09:52:09.307Z,4.10
2024-04-01T09:56:59.556Z,4.30
2024-04-01T10:01:21.781Z,3.80
2024-04-01T10:06:08.916Z,4.40
2024-04-01T10:10:49.243Z,4.70
2024-04-01T10:15:20.413Z,4.30
2024-04-01T10:20:00.733Z,5.00
2024-04-01T10:24:34.221Z,4.60
2024-04-01T10:29:12.577Z,4.70
2024-04-01T10:33:45.069Z,5.00
2024-04-01T10:38:27.771Z,5.10
2024-04-01T10:42:59.989Z,5.20
2024-04-01T10:47:30.464Z,5.70
2024-04-01T10:51:57.324Z,4.60
2024-04-01T10:56:24.524Z,5.20
2024-04-01T11:00:52.897Z,4.70
2024-04-01T11:05:30.810Z,5.30
2024-04-01T11:09:50.428Z,4.40
2024-04-01T11:13:57.748Z,4.10
2024-04-01T11:18:21.618Z,4.50
2024-04-01T11:22:46.193Z,4.40
2024-04-01T11:27:11.761Z,4.30
2024-04-01T11:31:22.241Z,4.00
2024-04-01T11:35:43.329Z,4.50
2024-04-01T11:39:53.890Z,3.90
2024-04-01T11:44:01.899Z,4.20
2024-04-01T11:48:11.422Z,5.20
2024-04-01T11:52:20.214Z,4.20
2024-04-01T11:56:42.347Z,4.20
2024-04-01T12:00:57.923Z,4.00
2024-04-01T12:05:07.761Z,4.10
2024-04-01T12:09:16.176Z,4.20
2024-04-01T12:13:30.403Z,4.80
2024-04-01T12:17:40.175Z,4.70
2024-04-01T12:21:51.838Z,4.90
2024-04-01T12:26:12.173Z,4.60
2024-04-01T12:30:22.149Z,5.10
2024-04-01T12:34:36.231Z,5.60
2024-04-01T12:38:45.527Z,4.40
2024-04-01T12:42:54.942Z,4.30
2024-04-01T12:47:02.687Z,4.20
2024-04-01T12:51:11.421Z,5.10
2024-04-01T12:55:23.910Z,4.10
2024-04-01T12:59:37.502Z,4.20
2024-04-01T13:04:11.330Z,4.70
2024-04-01T13:08:29.334Z,4.40
2024-04-01T13:12:56.591Z,4.70
2024-04-01T13:17:08.039Z,4.90
2024-04-01T13:21:20.477Z,4.60
2024-04-01T13:25:39.250Z,4.40
2024-04-01T13:29:57.645Z,4.90
2024-04-01T13:34:24.470Z,4.80
2024-04-01T13:38:57.197Z,6.00
2024-04-01T13:43:29.956Z,4.80
2024-04-01T13:47:45.199Z,5.50
2024-04-01T13:52:18.247Z,4.70
2024-04-01T13:56:59.793Z,5.50
2024-04-01T14:01:12.814Z,5.30
2024-04-01T14:05:33.248Z,4.80
2024-04-01T14:09:48.868Z,5.10
2024-04-01T14:14:03.332Z,5.10
2024-04-01T14:18:18.130Z,5.10
2024-04-01T14:22:29.167Z,5.00
2024-04-01T14:26:36.860Z,4.60
2024-04-01T14:30:44.617Z,4.80
2024-04-01T14:34:51.984Z,5.30
2024-04-01T14:39:01.310Z,5.00
2024-04-01T14:43:09.322Z,5.60
2024-04-01T14:47:17.194Z,5.00
2024-04-01T14:51:24.681Z,5.10
2024-04-01T14:55:32.274Z,5.10
2024-04-01T14:59:40.344Z,4.80
2024-04-01T15:03:48.850Z,4.80
2024-04-01T15:07:56.789Z,4.30
2024-04-01T15:12:04.819Z,5.10
2024-04-01T15:16:16.083Z,4.90
2024-04-01T15:20:24.012Z,6.50
2024-04-01T15:24:32.041Z,5.60
2024-04-01T15:28:40.352Z,4.80
2024-04-01T15:32:48.973Z,5.00
2024-04-01T15:36:56.494Z,4.90
2024-04-01T15:41:04.116Z,5.00
2024-04-01T15:45:12.846Z,4.70
2024-04-01T15:49:21.796Z,4.80
2024-04-01T15:53:31.092Z,6.00
2024-04-01T15:57:38.900Z,5.30
2024-04-01T16:01:47.084Z,5.80
2024-04-01T16:05:58.253Z,4.10
2024-04-01T16:10:06.857Z,2.50
2024-04-01T16:14:22.488Z,2.30
2024-04-01T16:18:32.476Z,1.80
2024-04-01T16:22:40.446Z,1.70
2024-04-01T16:26:50.082Z,2.00
2024-04-01T16:31:02.237Z,2.10
2024-04-01T16:35:10.147Z,1.60
2024-04-01T16:39:18.472Z,2.20
2024-04-01T16:43:28.053Z,2.00
2024-04-01T16:47:37.856Z,1.80
2024-04-01T16:51:49.477Z,2.50
2024-04-01T16:55:59.336Z,3.70
2024-04-01T17:00:09.970Z,2.30
2024-04-01T17:04:17.787Z,2.30
2024-04-01T17:08:25.280Z,2.70
2024-04-01T17:12:33.162Z,2.40
2024-04-01T17:16:41.656Z,2.20
2024-04-01T17:20:50.935Z,2.10
2024-04-01T17:25:02.082Z,2.50
2024-04-01T17:29:11.026Z,3.20
2024-04-01T17:33:20.446Z,2.80
2024-04-01T17:37:30.130Z,2.50
2024-04-01T17:41:39.097Z,2.40
2024-04-01T17:45:46.456Z,2.40
2024-04-01T17:49:56.625Z,1.90
2024-04-01T17:54:04.468Z,2.30
2024-04-01T17:58:13.369Z,2.40
2024-04-01T18:02:25.531Z,2.50
2024-04-01T18:06:38.815Z,1.80
2024-04-01T18:10:49.980Z,2.10
2024-04-01T18:14:59.933Z,2.30
2024-04-01T18:19:08.289Z,2.40
2024-04-01T18:23:17.489Z,2.10
2024-04-01T18:27:27.201Z,2.00
2024-04-01T18:31:45.858Z,1.70
2024-04-01T18:35:59.704Z,1.40
2024-04-01T18:40:25.443Z,1.30
2024-04-01T18:44:37.930Z,1.30
2024-04-01T18:48:51.514Z,1.60
2024-04-01T18:53:05.041Z,1.40
2024-04-01T18:57:18.066Z,1.40
2024-04-01T19:01:27.646Z,1.60
2024-04-01T19:05:37.428Z,1.80
2024-04-01T19:09:58.645Z,1.70
2024-04-01T19:14:22.200Z,1.90
2024-04-01T19:18:30.730Z,2.30
2024-04-01T19:22:44.967Z,2.90
2024-04-01T19:27:05.259Z,2.50
2024-04-01T19:31:19.261Z,2.10
2024-04-01T19:35:27.376Z,2.30
2024-04-01T19:39:37.322Z,2.30
2024-04-01T19:43:47.695Z,2.40
2024-04-01T19:47:57.453Z,2.20
2024-04-01T19:52:10.553Z,2.40
2024-04-01T19:56:27.310Z,2.70
2024-04-01T20:00:39.648Z,2.80
2024-04-01T20:04:50.088Z,2.80
2024-04-01T20:09:01.915Z,1.90
2024-04-01T20:13:19.795Z,2.10
2024-04-01T20:17:39.801Z,1.80
2024-04-01T20:21:47.947Z,2.40
2024-04-01T20:25:58.363Z,1.80
2024-04-01T20:30:33.952Z,2.30
2024-04-01T20:34:49.110Z,1.80
2024-04-01T20:38:56.189Z,1.90
2024-04-01T20:43:07.738Z,1.90
2024-04-01T20:47:18.564Z,2.00
2024-04-01T20:51:34.953Z,2.00
2024-04-01T20:55:52.487Z,2.50
2024-04-01T21:00:02.971Z,2.80
2024-04-01T21:04:12.154Z,2.50
2024-04-01T21:08:27.405Z,2.20
2024-04-01T21:12:35.338Z,1.90
2024-04-01T21:16:43.210Z,1.80
2024-04-01T21:20:51.914Z,2.50
2024-04-01T21:24:58.896Z,1.80
2024-04-01T21:29:06.625Z,2.10
2024-04-01T21:33:13.988Z,2.00
2024-04-01T21:37:21.713Z,2.00
2024-04-01T21:41:28.807Z,2.10
2024-04-01T21:45:36.455Z,2.10
2024-04-01T21:49:43.735Z,2.20
2024-04-01T21:53:51.422Z,2.50
2024-04-01T21:57:58.555Z,2.60
2024-04-01T22:02:07.898Z,2.50
2024-04-01T22:06:15.537Z,2.10
2024-04-01T22:10:24.812Z,3.20
2024-04-01T22:14:32.570Z,3.70
2024-04-01T22:18:40.055Z,2.80
2024-04-01T22:22:49.869Z,2.60
2024-04-01T22:26:59.405Z,2.40
2024-04-01T22:31:12.168Z,2.70
2024-04-01T22:35:20.220Z,2.80
2024-04-01T22:39:27.564Z,3.20
2024-04-01T22:43:35.934Z,2.80
2024-04-01T22:47:43.435Z,3.80
2024-04-01T22:51:51.962Z,3.20
2024-04-01T22:55:59.758Z,3.60
2024-04-01T23:00:15.961Z,3.60
2024-04-01T23:04:26.303Z,2.50
2024-04-01T23:08:34.150Z,2.30
2024-04-01T23:12:42.832Z,2.50
2024-04-01T23:16:50.116Z,2.50
2024-04-01T23:20:59.070Z,2.10
2024-04-01T23:25:06.652Z,1.40
2024-04-01T23:29:13.459Z,1.10
2024-04-01T23:33:23.168Z,1.10
2024-04-01T23:37:30.546Z,1.10
2024-04-01T23:41:38.348Z,1.30
2024-04-01T23:45:53.529Z,1.20
2024-04-01T23:50:01.147Z,1.00
2024-04-01T23:54:09.082Z,1.30
2024-04-01T23:58:17.360Z,1.40
